Time;durP1;ratioP1;P1;durP2;ratioP2;P2;SDS_P1;SDS_P2;PMS_P1;PMS_P2;Temp;Humidity;BMP_temperature;BMP_pressure;BME280_temperature;BME280_humidity;BME280_pressure;Samples;Min_cycle;Max_cycle;Signal;HPM_P1;HPM_P2
2022/04/04 00:01:15;;;;;;;2.20;1.25;;;2.30;99.90;;;;;;5076635;28;20024;-60
2022/04/04 00:03:40;;;;;;;4.18;1.73;;;2.20;99.90;;;;;;5077236;28;20039;-60
2022/04/04 00:06:06;;;;;;;4.07;1.90;;;2.20;99.90;;;;;;5080203;28;20024;-60
2022/04/04 00:08:33;;;;;;;4.95;2.10;;;2.20;99.90;;;;;;5064528;28;20387;-60
2022/04/04 00:10:59;;;;;;;6.38;2.38;;;2.30;99.90;;;;;;5077511;28;20028;-60
2022/04/04 00:13:27;;;;;;;4.68;2.40;;;2.20;99.90;;;;;;5080153;28;20626;-61
2022/04/04 00:15:53;;;;;;;6.40;1.98;;;2.20;99.90;;;;;;5083997;28;20440;-60
2022/04/04 00:18:18;;;;;;;4.18;2.25;;;2.10;99.90;;;;;;5075294;28;20055;-60
2022/04/04 00:20:44;;;;;;;3.50;1.60;;;2.10;99.90;;;;;;5072266;28;20052;-60
2022/04/04 00:23:13;;;;;;;6.70;2.55;;;2.10;99.90;;;;;;5078776;28;20115;-60
2022/04/04 00:25:44;;;;;;;4.15;2.17;;;2.00;99.90;;;;;;5057565;28;20056;-60
2022/04/04 00:28:10;;;;;;;4.45;1.95;;;2.00;99.90;;;;;;5074664;28;20032;-63
2022/04/04 00:30:36;;;;;;;4.90;2.13;;;2.10;99.90;;;;;;5060677;28;20047;-62
2022/04/04 00:33:03;;;;;;;5.13;2.28;;;2.20;99.90;;;;;;5076976;28;20073;-61
2022/04/04 00:35:29;;;;;;;6.28;2.15;;;2.30;99.90;;;;;;5080768;28;20024;-60
2022/04/04 00:37:57;;;;;;;6.20;2.35;;;2.20;99.90;;;;;;5077651;28;20054;-60
2022/04/04 00:40:23;;;;;;;6.50;3.38;;;2.20;99.90;;;;;;5054879;28;20653;-60
2022/04/04 00:42:49;;;;;;;5.60;3.00;;;2.10;99.90;;;;;;5051802;28;20021;-61
2022/04/04 00:45:16;;;;;;;2.95;1.60;;;2.10;99.90;;;;;;5056376;28;20230;-61
2022/04/04 00:47:41;;;;;;;14.43;3.13;;;2.10;99.90;;;;;;5064481;28;20016;-60
2022/04/04 00:50:07;;;;;;;5.57;2.45;;;2.10;99.90;;;;;;5061070;28;20048;-61
2022/04/04 00:52:33;;;;;;;8.63;3.22;;;2.10;99.90;;;;;;5060742;28;20455;-61
2022/04/04 00:54:59;;;;;;;9.57;3.67;;;2.00;99.90;;;;;;5053962;28;20104;-60
2022/04/04 00:57:25;;;;;;;5.72;2.35;;;1.90;99.90;;;;;;5059773;28;20031;-60
2022/04/04 00:59:51;;;;;;;7.60;3.30;;;2.00;99.90;;;;;;5055568;28;20096;-60
2022/04/04 01:02:17;;;;;;;5.28;2.95;;;1.90;99.90;;;;;;5043357;28;20026;-61
2022/04/04 01:04:42;;;;;;;10.30;3.08;;;2.00;99.90;;;;;;5057945;28;20098;-60
2022/04/04 01:07:08;;;;;;;5.53;2.33;;;1.90;99.90;;;;;;5060668;28;20803;-61
2022/04/04 01:09:34;;;;;;;5.72;1.85;;;2.10;99.90;;;;;;5059883;28;20037;-61
2022/04/04 01:12:10;;;;;;;5.82;2.95;;;2.10;99.90;;;;;;5054972;28;20048;-60
2022/04/04 01:14:38;;;;;;;5.95;2.63;;;2.00;99.90;;;;;;5054049;28;20435;-60
2022/04/04 01:17:05;;;;;;;2.67;1.83;;;2.10;99.90;;;;;;5045247;28;20105;-60
2022/04/04 01:19:31;;;;;;;5.38;2.47;;;2.10;99.90;;;;;;5042167;28;20373;-62
2022/04/04 01:21:56;;;;;;;6.22;3.42;;;2.30;99.90;;;;;;5057108;28;20032;-62
2022/04/04 01:24:23;;;;;;;7.43;2.92;;;2.30;99.90;;;;;;5058322;28;20476;-62
2022/04/04 01:26:49;;;;;;;8.27;2.83;;;2.20;99.90;;;;;;5056753;28;20041;-60
2022/04/04 01:29:15;;;;;;;5.10;2.55;;;2.20;99.90;;;;;;5057279;28;20385;-62
2022/04/04 01:31:41;;;;;;;5.97;2.80;;;2.10;99.90;;;;;;5058447;28;20021;-62
2022/04/04 01:34:07;;;;;;;6.72;2.45;;;2.20;99.90;;;;;;5056078;28;20112;-63
2022/04/04 01:36:33;;;;;;;7.90;3.40;;;2.20;99.90;;;;;;5053052;28;20095;-60
2022/04/04 01:38:59;;;;;;;8.38;3.40;;;2.20;99.90;;;;;;5060444;28;20049;-60
2022/04/04 01:41:25;;;;;;;6.72;2.58;;;2.10;99.90;;;;;;5052947;28;20544;-63
2022/04/04 01:43:51;;;;;;;6.63;3.28;;;2.20;99.90;;;;;;5054743;28;20032;-61
2022/04/04 01:46:26;;;;;;;7.75;3.42;;;2.10;99.90;;;;;;5062237;28;20025;-61
2022/04/04 01:48:57;;;;;;;9.98;5.05;;;2.20;99.90;;;;;;5059051;28;20048;-61
2022/04/04 01:51:24;;;;;;;10.02;3.08;;;2.20;99.90;;;;;;5042181;28;20149;-60
2022/04/04 01:53:50;;;;;;;10.55;4.22;;;2.20;99.90;;;;;;5060132;28;20096;-62
2022/04/04 01:56:16;;;;;;;11.93;4.57;;;2.20;99.90;;;;;;5061702;28;20504;-62
2022/04/04 01:58:42;;;;;;;3.58;2.47;;;2.20;99.90;;;;;;5044306;28;20032;-62
2022/04/04 02:01:12;;;;;;;9.10;3.17;;;2.20;99.90;;;;;;5058253;28;20115;-60
2022/04/04 02:03:38;;;;;;;9.10;3.25;;;2.20;99.90;;;;;;5054272;28;20029;-63
2022/04/04 02:06:03;;;;;;;6.15;3.63;;;2.20;99.90;;;;;;5055208;28;20040;-62
2022/04/04 02:08:31;;;;;;;7.15;3.03;;;2.20;99.90;;;;;;5060850;28;20035;-62
2022/04/04 02:10:57;;;;;;;7.80;3.58;;;2.20;99.90;;;;;;5059861;28;20028;-61
2022/04/04 02:13:25;;;;;;;7.22;2.58;;;2.20;99.90;;;;;;5038496;28;20024;-63
2022/04/04 02:15:52;;;;;;;5.47;2.47;;;2.20;99.90;;;;;;5053576;28;20489;-62
2022/04/04 02:18:18;;;;;;;5.68;2.95;;;2.20;99.90;;;;;;5051003;28;20098;-62
2022/04/04 02:20:44;;;;;;;5.20;2.80;;;2.10;99.90;;;;;;5057105;28;20037;-62
2022/04/04 02:23:10;;;;;;;8.55;3.03;;;2.20;99.90;;;;;;5053581;28;20393;-60
2022/04/04 02:25:36;;;;;;;5.05;1.88;;;2.10;99.90;;;;;;5054894;28;20028;-61
2022/04/04 02:28:02;;;;;;;5.60;2.47;;;2.20;99.90;;;;;;5056289;28;20112;-62
2022/04/04 02:30:27;;;;;;;2.10;1.30;;;2.20;99.90;;;;;;5036909;28;20455;-61
2022/04/04 02:32:53;;;;;;;4.75;2.33;;;2.20;99.90;;;;;;5052858;28;20025;-61
2022/04/04 02:35:19;;;;;;;7.20;2.60;;;2.20;99.90;;;;;;5057944;28;20036;-62
2022/04/04 02:37:45;;;;;;;4.97;2.70;;;2.10;99.90;;;;;;5053239;28;20033;-61
2022/04/04 02:40:11;;;;;;;5.97;2.67;;;2.10;99.90;;;;;;5053314;28;20056;-61
2022/04/04 02:42:36;;;;;;;5.28;2.58;;;2.10;99.90;;;;;;5054480;28;20107;-61
2022/04/04 02:45:03;;;;;;;5.90;3.15;;;2.00;99.90;;;;;;5053579;28;20032;-60
2022/04/04 02:47:28;;;;;;;9.40;2.58;;;2.00;99.90;;;;;;5060552;28;20020;-62
2022/04/04 02:49:54;;;;;;;5.63;2.63;;;2.00;99.90;;;;;;5061889;28;20025;-60
2022/04/04 02:52:20;;;;;;;8.85;2.58;;;2.00;99.90;;;;;;5055227;28;20108;-62
2022/04/04 02:54:45;;;;;;;7.38;2.85;;;2.00;99.90;;;;;;5056395;28;20531;-60
2022/04/04 02:57:12;;;;;;;5.40;2.30;;;2.00;99.90;;;;;;5053607;28;20078;-61
2022/04/04 02:59:37;;;;;;;7.22;3.20;;;2.10;99.90;;;;;;5059191;28;20480;-62
2022/04/04 03:02:04;;;;;;;6.38;3.38;;;2.10;99.90;;;;;;5050329;28;20032;-60
2022/04/04 03:04:30;;;;;;;4.32;2.45;;;2.10;99.90;;;;;;5052859;28;20048;-61
2022/04/04 03:06:56;;;;;;;3.92;1.83;;;2.20;99.90;;;;;;5059426;28;20060;-62
2022/04/04 03:09:22;;;;;;;4.40;1.77;;;2.40;99.90;;;;;;5039095;28;20032;-62
2022/04/04 03:11:47;;;;;;;7.30;2.10;;;2.30;99.90;;;;;;5059074;28;20033;-61
2022/04/04 03:14:13;;;;;;;4.18;2.10;;;2.20;99.90;;;;;;5050046;28;20032;-62
2022/04/04 03:16:38;;;;;;;5.47;2.58;;;2.30;99.90;;;;;;5054984;28;20036;-61
2022/04/04 03:19:04;;;;;;;4.88;2.78;;;2.30;99.90;;;;;;5056864;28;20109;-61
2022/04/04 03:21:30;;;;;;;6.05;2.65;;;2.40;99.90;;;;;;5056121;28;20052;-61
2022/04/04 03:23:56;;;;;;;12.88;2.90;;;2.30;99.90;;;;;;5044708;28;20033;-61
2022/04/04 03:26:22;;;;;;;6.75;2.33;;;2.40;99.90;;;;;;5052651;28;20489;-62
2022/04/04 03:28:48;;;;;;;1.55;1.33;;;2.40;99.90;;;;;;5038889;28;20037;-61
2022/04/04 03:31:14;;;;;;;8.38;2.92;;;2.40;99.90;;;;;;5054265;28;20030;-61
2022/04/04 03:33:40;;;;;;;6.55;3.42;;;2.50;99.90;;;;;;5037638;28;20028;-62
2022/04/04 03:36:06;;;;;;;7.00;2.58;;;2.50;99.90;;;;;;5050841;28;20029;-62
2022/04/04 03:38:33;;;;;;;4.43;2.38;;;2.50;99.90;;;;;;5059570;28;20073;-60
2022/04/04 03:40:59;;;;;;;15.93;3.67;;;2.50;99.90;;;;;;5055517;28;20131;-63
2022/04/04 03:43:25;;;;;;;9.82;3.58;;;2.50;99.90;;;;;;5036372;28;20032;-64
2022/04/04 03:45:51;;;;;;;3.22;2.00;;;2.60;99.90;;;;;;5055162;28;20056;-61
2022/04/04 03:48:17;;;;;;;4.32;2.28;;;2.60;99.90;;;;;;5053539;28;20060;-62
2022/04/04 03:50:45;;;;;;;2.47;1.80;;;2.70;99.90;;;;;;5056450;28;20060;-61
2022/04/04 03:53:11;;;;;;;7.82;3.20;;;2.70;99.90;;;;;;5049670;28;20021;-61
2022/04/04 03:55:39;;;;;;;7.57;3.45;;;2.70;99.90;;;;;;5053587;28;20112;-61
2022/04/04 03:58:06;;;;;;;7.65;2.72;;;2.80;99.90;;;;;;5056375;28;20384;-61
2022/04/04 04:00:31;;;;;;;6.75;2.50;;;2.80;99.90;;;;;;5058896;28;20029;-61
2022/04/04 04:02:57;;;;;;;5.00;1.95;;;2.80;99.90;;;;;;5056271;28;20086;-61
2022/04/04 04:05:23;;;;;;;4.80;2.25;;;2.80;99.90;;;;;;5037060;28;20028;-61
2022/04/04 04:07:49;;;;;;;6.13;2.45;;;2.80;99.90;;;;;;5057462;28;20021;-61
2022/04/04 04:10:15;;;;;;;4.85;2.55;;;2.80;99.90;;;;;;5058395;28;20021;-62
2022/04/04 04:12:42;;;;;;;4.65;2.15;;;2.90;99.90;;;;;;5057827;28;20020;-62
2022/04/04 04:15:10;;;;;;;8.25;2.65;;;2.90;99.90;;;;;;5042792;28;20063;-61
2022/04/04 04:17:35;;;;;;;4.18;1.98;;;2.90;99.90;;;;;;5053210;28;20025;-61
2022/04/04 04:20:19;;;;;;;4.40;2.17;;;2.80;99.90;;;;;;5048224;28;20028;-61
2022/04/04 04:22:47;;;;;;;5.18;1.98;;;2.90;99.90;;;;;;5055659;28;20024;-61
2022/04/04 04:25:14;;;;;;;6.90;1.75;;;2.90;99.90;;;;;;5030977;28;20056;-61
2022/04/04 04:27:40;;;;;;;7.30;1.67;;;3.00;99.90;;;;;;5028612;28;20025;-62
2022/04/04 04:30:06;;;;;;;7.10;3.30;;;3.00;99.90;;;;;;5045629;28;20047;-61
2022/04/04 04:32:32;;;;;;;4.40;1.98;;;3.00;99.90;;;;;;5052981;28;20036;-61
2022/04/04 04:34:58;;;;;;;5.00;1.88;;;3.00;99.90;;;;;;5037463;28;20025;-63
2022/04/04 04:37:24;;;;;;;3.88;2.17;;;3.00;99.90;;;;;;5057213;28;20045;-62
2022/04/04 04:39:50;;;;;;;5.82;2.85;;;3.00;99.90;;;;;;5056107;28;20044;-62
2022/04/04 04:42:16;;;;;;;9.98;3.85;;;3.00;99.90;;;;;;5057647;28;20054;-61
2022/04/04 04:44:43;;;;;;;3.80;1.73;;;3.10;99.90;;;;;;5054325;28;20025;-61
2022/04/04 04:47:09;;;;;;;8.23;3.63;;;3.10;99.90;;;;;;5055117;28;20036;-62
2022/04/04 04:49:35;;;;;;;4.80;1.85;;;3.10;99.90;;;;;;5060651;28;20017;-62
2022/04/04 04:52:01;;;;;;;8.48;2.70;;;3.10;99.90;;;;;;5065463;28;20067;-61
2022/04/04 04:54:27;;;;;;;7.68;3.20;;;3.10;99.90;;;;;;5060398;28;20021;-61
2022/04/04 04:56:53;;;;;;;2.20;1.52;;;3.10;99.90;;;;;;5059768;28;20035;-62
2022/04/04 04:59:19;;;;;;;7.93;3.05;;;3.10;99.90;;;;;;5058007;28;20395;-61
2022/04/04 05:01:44;;;;;;;16.52;2.60;;;3.10;99.90;;;;;;5057156;28;20101;-61
2022/04/04 05:04:10;;;;;;;4.38;2.15;;;3.10;99.90;;;;;;5054086;28;20082;-62
2022/04/04 05:06:36;;;;;;;4.15;2.30;;;3.10;99.90;;;;;;5055266;28;20078;-62
2022/04/04 05:09:02;;;;;;;6.25;1.92;;;3.20;99.90;;;;;;5059136;28;20174;-61
2022/04/04 05:11:28;;;;;;;8.40;3.42;;;3.10;99.90;;;;;;5053696;28;20051;-60
2022/04/04 05:13:54;;;;;;;7.43;2.83;;;3.10;99.90;;;;;;5061854;28;20024;-60
2022/04/04 05:16:20;;;;;;;10.70;3.95;;;3.10;99.90;;;;;;5055947;28;20052;-62
2022/04/04 05:18:45;;;;;;;2.17;1.40;;;3.10;99.90;;;;;;5040323;28;20024;-63
2022/04/04 05:21:12;;;;;;;10.40;2.63;;;3.10;99.90;;;;;;5059980;28;20021;-62
2022/04/04 05:23:38;;;;;;;10.90;2.83;;;3.10;99.90;;;;;;5058812;28;20304;-61
2022/04/04 05:26:05;;;;;;;5.50;2.33;;;3.00;99.90;;;;;;5052079;28;20089;-62
2022/04/04 05:28:31;;;;;;;5.75;1.65;;;3.10;99.90;;;;;;5053108;28;20102;-63
2022/04/04 05:30:57;;;;;;;2.80;1.60;;;3.10;99.90;;;;;;5058394;28;20024;-61
2022/04/04 05:33:23;;;;;;;8.60;2.85;;;3.10;99.90;;;;;;5057502;28;20544;-62
2022/04/04 05:35:48;;;;;;;6.95;2.20;;;3.00;99.90;;;;;;5059992;28;20030;-61
2022/04/04 05:38:14;;;;;;;8.18;2.70;;;3.10;99.90;;;;;;5053528;28;20056;-62
2022/04/04 05:40:41;;;;;;;7.03;2.85;;;3.10;99.90;;;;;;5058844;28;20507;-62
2022/04/04 05:43:07;;;;;;;6.45;2.42;;;3.10;99.90;;;;;;5053949;28;20031;-61
2022/04/04 05:45:35;;;;;;;7.90;3.15;;;3.10;99.90;;;;;;5055650;28;20079;-61
2022/04/04 05:48:01;;;;;;;5.40;2.50;;;3.10;99.90;;;;;;5058890;28;20479;-61
2022/04/04 05:50:26;;;;;;;7.95;2.42;;;3.20;99.90;;;;;;5058180;28;20031;-61
2022/04/04 05:52:52;;;;;;;4.03;2.33;;;3.20;99.90;;;;;;5054272;28;20417;-62
2022/04/04 05:55:18;;;;;;;2.92;1.42;;;3.30;99.90;;;;;;5051488;28;20032;-62
2022/04/04 05:57:44;;;;;;;5.97;2.67;;;3.30;99.90;;;;;;5052516;28;20389;-61
2022/04/04 06:00:13;;;;;;;3.90;2.08;;;3.30;99.90;;;;;;5054910;28;20021;-62
2022/04/04 06:02:40;;;;;;;6.60;2.93;;;3.40;99.90;;;;;;5048386;28;20866;-61
2022/04/04 06:05:07;;;;;;;7.03;3.08;;;3.40;99.90;;;;;;5054887;28;20356;-61
2022/04/04 06:07:33;;;;;;;13.15;4.30;;;3.50;99.90;;;;;;5052932;28;20112;-60
2022/04/04 06:09:59;;;;;;;6.45;2.83;;;3.60;99.90;;;;;;5058601;28;20025;-63
2022/04/04 06:12:24;;;;;;;6.65;2.50;;;3.70;99.90;;;;;;5054818;28;20017;-61
2022/04/04 06:14:50;;;;;;;4.00;2.03;;;3.80;99.90;;;;;;5057880;28;20033;-61
2022/04/04 06:17:16;;;;;;;8.20;2.65;;;3.80;99.90;;;;;;5058098;28;20514;-61
2022/04/04 06:19:43;;;;;;;6.28;2.88;;;3.90;99.90;;;;;;5057722;28;20373;-61
2022/04/04 06:22:10;;;;;;;4.53;1.80;;;4.00;99.90;;;;;;5059844;28;20024;-61
2022/04/04 06:24:36;;;;;;;2.80;1.50;;;4.00;99.90;;;;;;5057711;28;20525;-61
2022/04/04 06:27:02;;;;;;;5.25;1.98;;;4.00;99.90;;;;;;5055763;28;20083;-62
2022/04/04 06:29:28;;;;;;;9.32;2.47;;;4.20;99.90;;;;;;5049541;28;20598;-60
2022/04/04 06:31:55;;;;;;;2.95;1.75;;;4.20;99.90;;;;;;5054413;28;20029;-62
2022/04/04 06:34:21;;;;;;;6.43;2.10;;;4.20;99.90;;;;;;5050981;28;20017;-61
2022/04/04 06:36:47;;;;;;;4.40;2.15;;;4.20;99.90;;;;;;5053082;28;20072;-62
2022/04/04 06:39:13;;;;;;;3.72;1.92;;;4.40;99.90;;;;;;5069575;28;20134;-61
2022/04/04 06:41:39;;;;;;;3.92;2.08;;;4.50;99.90;;;;;;5069765;28;20028;-63
2022/04/04 06:44:05;;;;;;;9.27;3.20;;;4.40;99.90;;;;;;5075786;28;20514;-62
2022/04/04 06:46:31;;;;;;;6.05;2.45;;;4.50;99.90;;;;;;5074784;28;20036;-61
2022/04/04 06:48:58;;;;;;;3.80;2.03;;;4.70;99.90;;;;;;5075636;28;20044;-61
2022/04/04 06:51:24;;;;;;;5.35;2.50;;;4.70;99.90;;;;;;5066153;28;20016;-61
2022/04/04 06:53:50;;;;;;;7.68;3.03;;;4.70;99.90;;;;;;5077836;28;20430;-63
2022/04/04 06:56:15;;;;;;;3.80;1.63;;;4.70;99.90;;;;;;5070173;28;20073;-61
2022/04/04 06:58:41;;;;;;;8.75;2.88;;;4.70;99.90;;;;;;5075094;28;20111;-62
2022/04/04 07:01:07;;;;;;;5.72;2.72;;;4.70;99.90;;;;;;5063497;28;20143;-62
2022/04/04 07:03:32;;;;;;;5.65;2.55;;;4.80;99.90;;;;;;5076244;28;20035;-62
2022/04/04 07:05:59;;;;;;;3.28;1.70;;;4.80;99.90;;;;;;5075174;28;20036;-62
2022/04/04 07:08:24;;;;;;;19.00;2.55;;;5.00;99.90;;;;;;5082444;28;20411;-62
2022/04/04 07:10:51;;;;;;;5.93;2.67;;;5.20;99.90;;;;;;5081382;28;20035;-61
2022/04/04 07:13:17;;;;;;;6.53;2.33;;;5.20;99.90;;;;;;5078102;28;20016;-62
2022/04/04 07:15:43;;;;;;;3.47;1.70;;;5.20;99.90;;;;;;5073256;28;20028;-61
2022/04/04 07:18:10;;;;;;;3.88;1.50;;;5.20;99.90;;;;;;5076267;28;20078;-62
2022/04/04 07:20:38;;;;;;;3.33;1.75;;;5.20;99.90;;;;;;5082420;28;20391;-61
2022/04/04 07:23:05;;;;;;;5.47;2.25;;;5.20;99.90;;;;;;5080492;28;20024;-60
2022/04/04 07:25:31;;;;;;;6.50;2.75;;;5.30;99.90;;;;;;5081211;28;20036;-61
2022/04/04 07:27:57;;;;;;;10.35;2.25;;;5.30;99.90;;;;;;5084307;28;20024;-60
2022/04/04 07:30:23;;;;;;;4.30;1.77;;;5.50;99.90;;;;;;5081887;28;20021;-61
2022/04/04 07:32:51;;;;;;;5.32;2.60;;;5.70;99.90;;;;;;5079217;28;20475;-62
2022/04/04 07:35:19;;;;;;;11.13;3.35;;;5.80;99.90;;;;;;5077438;28;20107;-61
2022/04/04 07:37:47;;;;;;;10.60;3.03;;;5.80;99.90;;;;;;5079102;28;20020;-61
2022/04/04 07:40:15;;;;;;;10.35;2.85;;;6.10;99.90;;;;;;5059051;28;20123;-61
2022/04/04 07:42:43;;;;;;;7.38;2.15;;;6.10;99.90;;;;;;5076075;28;20058;-61
2022/04/04 07:45:10;;;;;;;7.45;2.47;;;6.10;99.90;;;;;;5059071;28;20056;-62
2022/04/04 07:47:37;;;;;;;6.25;2.25;;;6.00;99.90;;;;;;5059947;28;20035;-62
2022/04/04 07:50:04;;;;;;;8.65;3.45;;;5.80;99.90;;;;;;5070433;28;20028;-63
2022/04/04 07:52:30;;;;;;;5.90;2.58;;;5.80;99.90;;;;;;5078408;28;20028;-62
2022/04/04 07:54:56;;;;;;;2.83;1.50;;;6.00;99.90;;;;;;5069653;28;20089;-62
2022/04/04 07:57:21;;;;;;;5.28;2.13;;;6.00;99.90;;;;;;5080664;28;20024;-62
2022/04/04 07:59:47;;;;;;;8.18;2.72;;;6.00;99.90;;;;;;5071484;28;20089;-63
2022/04/04 08:02:13;;;;;;;6.95;2.45;;;6.10;99.90;;;;;;5078284;28;20469;-62
2022/04/04 08:04:39;;;;;;;7.78;2.92;;;6.20;99.90;;;;;;5076492;28;20032;-62
2022/04/04 08:07:05;;;;;;;8.10;2.85;;;6.70;99.90;;;;;;5074661;28;20059;-62
2022/04/04 08:09:31;;;;;;;5.45;2.58;;;7.00;99.90;;;;;;5071995;28;20081;-62
2022/04/04 08:11:57;;;;;;;6.20;2.95;;;7.10;99.90;;;;;;5076290;28;20028;-62
2022/04/04 08:14:23;;;;;;;6.43;2.83;;;7.00;99.90;;;;;;5071248;28;20032;-62
2022/04/04 08:16:50;;;;;;;4.00;2.40;;;6.90;99.90;;;;;;5075476;28;20039;-62
2022/04/04 08:19:15;;;;;;;7.85;2.30;;;6.90;99.90;;;;;;5076754;28;20020;-62
2022/04/04 08:21:44;;;;;;;7.85;2.83;;;6.90;99.90;;;;;;5075811;28;20068;-62
2022/04/04 08:24:12;;;;;;;9.43;2.75;;;7.00;99.90;;;;;;5084526;28;20028;-62
2022/04/04 08:26:39;;;;;;;6.18;2.22;;;7.00;99.90;;;;;;5080543;28;20031;-62
2022/04/04 08:29:05;;;;;;;8.20;3.15;;;7.10;99.90;;;;;;5071978;28;20469;-62
2022/04/04 08:31:31;;;;;;;6.43;2.55;;;6.80;99.90;;;;;;5068080;28;20029;-62
2022/04/04 08:33:57;;;;;;;6.25;2.42;;;6.50;99.90;;;;;;5070366;28;20396;-62
2022/04/04 08:36:22;;;;;;;8.57;4.38;;;6.40;99.90;;;;;;5082097;28;20020;-62
2022/04/04 08:38:48;;;;;;;4.28;1.98;;;6.40;99.90;;;;;;5074187;28;20056;-62
2022/04/04 08:41:14;;;;;;;7.88;3.30;;;6.70;99.90;;;;;;5047576;28;20025;-62
2022/04/04 08:43:44;;;;;;;6.95;2.55;;;6.70;99.90;;;;;;5060839;28;20025;-61
2022/04/04 08:46:10;;;;;;;7.10;2.05;;;6.90;99.90;;;;;;5061701;28;20035;-61
2022/04/04 08:48:38;;;;;;;6.05;2.05;;;7.00;99.90;;;;;;5064696;28;20032;-63
2022/04/04 08:51:07;;;;;;;4.45;2.13;;;7.10;99.90;;;;;;5057299;28;20108;-61
2022/04/04 08:53:34;;;;;;;10.23;3.75;;;7.00;99.90;;;;;;5060189;28;20025;-61
2022/04/04 08:56:01;;;;;;;9.10;3.40;;;7.50;99.90;;;;;;5058716;28;20040;-61
2022/04/04 08:58:26;;;;;;;5.72;2.47;;;7.20;99.90;;;;;;5064031;28;20055;-62
2022/04/04 09:00:52;;;;;;;7.30;2.65;;;7.10;99.90;;;;;;5059746;28;20032;-62
2022/04/04 09:03:22;;;;;;;3.92;1.65;;;7.30;99.90;;;;;;5065458;28;20826;-63
2022/04/04 09:05:54;;;;;;;4.97;1.90;;;7.40;99.90;;;;;;5050547;28;20068;-63
2022/04/04 09:08:20;;;;;;;4.22;1.85;;;7.30;99.90;;;;;;5054730;28;20036;-63
2022/04/04 09:10:47;;;;;;;9.13;3.17;;;7.30;99.90;;;;;;5054420;28;20052;-63
2022/04/04 09:13:15;;;;;;;11.13;4.15;;;7.10;99.90;;;;;;5063474;28;20044;-61
2022/04/04 09:16:02;;;;;;;9.50;2.95;;;7.30;99.90;;;;;;5057384;28;20029;-63
2022/04/04 09:18:36;;;;;;;6.03;2.63;;;7.20;99.90;;;;;;5056276;28;20037;-63
2022/04/04 09:21:07;;;;;;;9.30;3.75;;;7.20;99.90;;;;;;5058110;28;20094;-62
2022/04/04 09:23:45;;;;;;;3.95;1.80;;;7.20;99.90;;;;;;5051955;28;20488;-62
2022/04/04 09:26:39;;;;;;;8.00;3.28;;;7.50;99.90;;;;;;5048227;28;20043;-63
2022/04/04 09:29:20;;;;;;;6.90;2.78;;;7.30;99.90;;;;;;5051601;28;20032;-62
2022/04/04 09:31:59;;;;;;;3.20;1.73;;;7.20;99.90;;;;;;5060100;28;20036;-62
2022/04/04 09:34:25;;;;;;;3.22;1.70;;;7.10;99.90;;;;;;5060992;28;20910;-63
2022/04/04 09:36:51;;;;;;;6.60;2.85;;;7.20;99.90;;;;;;5057675;28;20154;-63
2022/04/04 09:39:17;;;;;;;7.63;2.97;;;7.20;99.90;;;;;;5057151;28;20066;-62
2022/04/04 09:41:43;;;;;;;4.18;2.17;;;7.20;99.90;;;;;;5053343;28;20025;-63
2022/04/04 09:44:11;;;;;;;7.60;3.45;;;7.10;99.90;;;;;;5055574;28;20032;-63
2022/04/04 09:46:42;;;;;;;5.32;2.08;;;7.00;99.90;;;;;;5062565;28;20028;-63
2022/04/04 09:49:16;;;;;;;9.10;3.28;;;7.00;99.90;;;;;;5061055;28;20016;-63
2022/04/04 09:51:42;;;;;;;7.07;2.35;;;7.10;99.90;;;;;;5059674;28;20024;-62
2022/04/04 09:54:11;;;;;;;4.63;1.95;;;7.00;99.90;;;;;;5058060;28;20079;-63
2022/04/04 09:56:36;;;;;;;9.32;4.50;;;7.20;99.90;;;;;;5041743;28;20056;-61
2022/04/04 09:59:03;;;;;;;5.78;2.05;;;7.10;99.90;;;;;;5057966;28;20476;-62
2022/04/04 10:01:31;;;;;;;9.70;3.03;;;7.10;99.90;;;;;;5058606;28;20032;-62
2022/04/04 10:03:59;;;;;;;3.88;1.80;;;6.90;99.90;;;;;;5057776;28;20037;-62
2022/04/04 10:06:28;;;;;;;4.97;2.40;;;7.10;99.90;;;;;;5058211;28;20028;-62
2022/04/04 10:08:57;;;;;;;5.53;2.20;;;7.00;99.90;;;;;;5062250;28;20392;-62
2022/04/04 10:11:23;;;;;;;3.78;1.85;;;7.10;99.90;;;;;;5058211;28;20024;-62
2022/04/04 10:13:52;;;;;;;6.97;3.05;;;7.20;99.90;;;;;;5055665;28;20078;-63
2022/04/04 10:16:18;;;;;;;7.82;2.22;;;6.70;99.90;;;;;;5064033;28;20032;-63
2022/04/04 10:18:45;;;;;;;5.03;2.33;;;6.60;99.90;;;;;;5059621;28;20029;-62
2022/04/04 10:21:11;;;;;;;6.00;2.35;;;6.50;99.90;;;;;;5060134;28;20467;-62
2022/04/04 10:23:43;;;;;;;5.90;1.90;;;6.30;99.90;;;;;;5055565;28;20033;-62
2022/04/04 10:26:09;;;;;;;4.32;2.03;;;6.30;99.90;;;;;;5060874;28;20028;-63
2022/04/04 10:28:37;;;;;;;4.50;1.67;;;6.40;99.90;;;;;;5059180;28;20370;-62
2022/04/04 10:31:18;;;;;;;8.45;2.45;;;6.70;99.90;;;;;;5057662;28;20020;-62
2022/04/04 10:33:49;;;;;;;7.20;2.33;;;6.90;99.90;;;;;;5052137;28;20031;-62
2022/04/04 10:36:25;;;;;;;2.13;1.30;;;6.70;99.90;;;;;;5058675;28;20067;-62
2022/04/04 10:38:55;;;;;;;13.02;3.55;;;6.60;99.90;;;;;;5059778;28;20080;-62
2022/04/04 10:41:27;;;;;;;9.15;2.85;;;6.60;99.90;;;;;;5055503;28;20032;-62
2022/04/04 10:43:54;;;;;;;7.20;2.90;;;6.20;99.90;;;;;;5061876;28;20028;-62
2022/04/04 10:46:22;;;;;;;5.35;1.88;;;6.20;99.90;;;;;;5058158;28;20036;-63
2022/04/04 10:48:51;;;;;;;10.15;4.45;;;5.90;99.90;;;;;;5042595;28;20090;-61
2022/04/04 10:51:26;;;;;;;9.70;3.80;;;5.60;99.90;;;;;;5051898;28;20024;-63
2022/04/04 10:53:54;;;;;;;10.57;3.45;;;5.40;99.90;;;;;;5061398;28;20036;-63
2022/04/04 10:56:24;;;;;;;5.45;2.42;;;5.20;99.90;;;;;;5040685;28;20492;-63
2022/04/04 10:59:14;;;;;;;8.23;4.07;;;5.40;99.90;;;;;;5061659;28;20035;-64
2022/04/04 11:01:41;;;;;;;11.48;5.15;;;5.30;99.90;;;;;;5054099;28;20400;-64
2022/04/04 11:04:30;;;;;;;7.15;3.22;;;5.10;99.90;;;;;;5047426;28;20035;-63
2022/04/04 11:10:08;;;;;;;6.40;3.45;;;5.00;99.90;;;;;;5053405;28;20784;-62
2022/04/04 11:12:55;;;;;;;8.85;4.43;;;4.90;99.90;;;;;;5059785;28;20063;-63
2022/04/04 11:15:43;;;;;;;13.68;4.00;;;4.60;99.90;;;;;;5058944;28;20142;-63
2022/04/04 11:18:10;;;;;;;9.15;3.60;;;4.60;99.90;;;;;;5063465;28;20035;-62
2022/04/04 11:20:43;;;;;;;9.65;3.70;;;4.60;99.90;;;;;;5060458;28;20520;-64
2022/04/04 11:23:09;;;;;;;4.80;2.30;;;4.60;99.90;;;;;;5053236;28;20029;-63
2022/04/04 11:25:37;;;;;;;6.90;2.92;;;4.50;99.90;;;;;;5057617;28;20094;-62
2022/04/04 11:28:04;;;;;;;3.67;2.10;;;4.50;99.90;;;;;;5052383;28;20109;-62
2022/04/04 11:30:30;;;;;;;4.85;2.47;;;4.60;99.90;;;;;;5058440;28;20025;-62
2022/04/04 11:33:07;;;;;;;11.27;3.83;;;4.60;99.90;;;;;;5047333;28;20052;-62
2022/04/04 11:35:34;;;;;;;8.88;4.03;;;4.80;99.90;;;;;;5062045;28;20036;-62
2022/04/04 11:38:06;;;;;;;7.97;3.78;;;4.90;99.90;;;;;;5035165;28;20056;-62
2022/04/04 11:40:38;;;;;;;17.30;9.75;;;4.90;99.90;;;;;;5056061;28;20437;-62
2022/04/04 11:43:09;;;;;;;11.35;5.22;;;5.00;99.90;;;;;;5049492;28;20060;-62
2022/04/04 11:45:39;;;;;;;9.23;3.53;;;5.10;99.90;;;;;;5050795;28;20039;-62
2022/04/04 11:48:17;;;;;;;13.35;4.95;;;5.00;99.90;;;;;;5051071;28;20025;-63
2022/04/04 11:50:44;;;;;;;10.48;5.03;;;5.00;99.90;;;;;;5050234;28;20029;-63
2022/04/04 11:53:12;;;;;;;7.10;2.85;;;5.00;99.90;;;;;;5036558;28;20032;-63
2022/04/04 11:55:41;;;;;;;8.80;3.92;;;5.10;99.90;;;;;;5058531;28;20029;-62
2022/04/04 11:58:20;;;;;;;5.18;3.20;;;4.90;99.90;;;;;;5067111;28;20502;-63
2022/04/04 12:00:55;;;;;;;6.63;3.60;;;4.80;99.90;;;;;;5061248;28;20016;-62
2022/04/04 12:03:23;;;;;;;16.92;6.75;;;4.60;99.90;;;;;;5064530;28;20107;-63
2022/04/04 12:05:49;;;;;;;10.18;5.32;;;4.60;99.90;;;;;;5054831;28;20056;-63
2022/04/04 12:08:17;;;;;;;12.35;5.88;;;4.50;99.90;;;;;;5065069;28;20472;-63
2022/04/04 12:10:49;;;;;;;59.67;49.50;;;4.40;99.90;;;;;;5058791;28;20083;-63
2022/04/04 12:13:21;;;;;;;12.40;2.10;;;4.40;99.90;;;;;;5056484;28;20013;-63
2022/04/04 12:15:49;;;;;;;17.88;10.93;;;4.40;99.90;;;;;;5058711;28;20669;-63
2022/04/04 12:18:29;;;;;;;15.23;4.32;;;4.50;99.90;;;;;;5061225;28;20034;-63
2022/04/04 12:21:01;;;;;;;7.07;3.63;;;4.50;99.90;;;;;;5062371;28;20025;-62
2022/04/04 12:26:15;;;;;;;9.50;3.75;;;4.50;99.90;;;;;;5052036;28;20093;-63
2022/04/04 12:28:52;;;;;;;5.85;3.70;;;4.40;99.90;;;;;;5060602;28;20024;-62
2022/04/04 12:31:26;;;;;;;10.93;4.55;;;4.40;99.90;;;;;;5054462;28;20024;-62
2022/04/04 12:34:02;;;;;;;14.43;4.55;;;4.40;99.90;;;;;;5060527;28;20020;-63
2022/04/04 12:36:32;;;;;;;25.15;9.98;;;4.40;99.90;;;;;;5059278;28;20099;-63
2022/04/04 12:39:01;;;;;;;17.73;8.85;;;4.40;99.90;;;;;;5062954;28;20048;-63
2022/04/04 12:41:27;;;;;;;8.77;3.53;;;4.40;99.90;;;;;;5055881;28;20653;-63
2022/04/04 12:44:01;;;;;;;18.80;3.45;;;4.40;99.90;;;;;;5036857;28;20048;-63
2022/04/04 12:46:32;;;;;;;12.55;5.85;;;4.40;99.90;;;;;;5040354;28;21084;-63
2022/04/04 12:49:19;;;;;;;5.47;2.97;;;4.30;99.90;;;;;;5039346;28;20024;-63
2022/04/04 12:51:53;;;;;;;7.03;3.65;;;4.30;99.90;;;;;;5048704;28;20103;-63
2022/04/04 12:54:26;;;;;;;11.10;4.22;;;4.30;99.90;;;;;;5051797;28;20025;-63
2022/04/04 12:56:53;;;;;;;10.07;5.15;;;4.30;99.90;;;;;;5049269;28;20029;-63
2022/04/04 12:59:20;;;;;;;10.90;5.22;;;4.30;99.90;;;;;;5056236;28;20510;-63
2022/04/04 13:02:04;;;;;;;10.48;5.18;;;4.20;99.90;;;;;;5057447;28;20024;-63
2022/04/04 13:04:30;;;;;;;9.95;2.88;;;4.20;99.90;;;;;;5058169;28;20404;-62